sensor_id;sensor_type;location;lat;lon;timestamp;pressure;altitude;pressure_sealevel;temperature;humidity
76022;BME280;64718;52.124;6.226;2023-06-22T00:00:50;101933.41;;;18.49;90.89
76022;BME280;64718;52.124;6.226;2023-06-22T00:03:17;101928.31;;;18.46;91.16
76022;BME280;64718;52.124;6.226;2023-06-22T00:05:43;101923.22;;;18.43;92.51
76022;BME280;64718;52.124;6.226;2023-06-22T00:08:10;101919.25;;;18.36;90.44
76022;BME280;64718;52.124;6.226;2023-06-22T00:10:36;101920.34;;;18.31;91.04
76022;BME280;64718;52.124;6.226;2023-06-22T00:13:05;101927.31;;;18.32;91.30
76022;BME280;64718;52.124;6.226;2023-06-22T00:15:32;101915.94;;;18.32;93.11
76022;BME280;64718;52.124;6.226;2023-06-22T00:17:58;101913.94;;;18.21;92.49
76022;BME280;64718;52.124;6.226;2023-06-22T00:20:25;101922.09;;;18.17;92.97
76022;BME280;64718;52.124;6.226;2023-06-22T00:22:53;101912.84;;;18.10;94.30
76022;BME280;64718;52.124;6.226;2023-06-22T00:25:19;101901.72;;;18.05;93.29
76022;BME280;64718;52.124;6.226;2023-06-22T00:27:46;101900.03;;;18.04;95.06
76022;BME280;64718;52.124;6.226;2023-06-22T00:30:15;101908.94;;;18.01;95.32
76022;BME280;64718;52.124;6.226;2023-06-22T00:32:41;101900.13;;;18.02;96.34
76022;BME280;64718;52.124;6.226;2023-06-22T00:35:08;101901.13;;;17.99;94.89
76022;BME280;64718;52.124;6.226;2023-06-22T00:37:35;101898.25;;;18.04;95.42
76022;BME280;64718;52.124;6.226;2023-06-22T00:40:02;101899.09;;;18.05;95.53
76022;BME280;64718;52.124;6.226;2023-06-22T00:42:29;101892.31;;;18.00;94.59
76022;BME280;64718;52.124;6.226;2023-06-22T00:44:55;101883.13;;;17.92;94.73
76022;BME280;64718;52.124;6.226;2023-06-22T00:47:24;101877.78;;;17.93;94.39
76022;BME280;64718;52.124;6.226;2023-06-22T00:49:50;101886.63;;;17.92;94.26
76022;BME280;64718;52.124;6.226;2023-06-22T00:52:18;101892.81;;;17.91;95.62
76022;BME280;64718;52.124;6.226;2023-06-22T00:54:47;101896.63;;;17.86;95.92
76022;BME280;64718;52.124;6.226;2023-06-22T00:57:17;101884.50;;;17.83;94.77
76022;BME280;64718;52.124;6.226;2023-06-22T00:59:44;101889.56;;;17.86;95.48
76022;BME280;64718;52.124;6.226;2023-06-22T01:02:11;101890.44;;;17.87;94.78
76022;BME280;64718;52.124;6.226;2023-06-22T01:04:40;101892.63;;;17.79;95.50
76022;BME280;64718;52.124;6.226;2023-06-22T01:07:08;101893.63;;;17.60;94.98
76022;BME280;64718;52.124;6.226;2023-06-22T01:09:43;101893.88;;;17.56;96.44
76022;BME280;64718;52.124;6.226;2023-06-22T01:12:11;101891.50;;;17.51;96.45
76022;BME280;64718;52.124;6.226;2023-06-22T01:14:43;101891.50;;;17.51;96.18
76022;BME280;64718;52.124;6.226;2023-06-22T01:17:15;101899.91;;;17.58;97.65
76022;BME280;64718;52.124;6.226;2023-06-22T01:19:45;101898.03;;;17.60;96.15
76022;BME280;64718;52.124;6.226;2023-06-22T01:22:15;101892.69;;;17.61;97.34
76022;BME280;64718;52.124;6.226;2023-06-22T01:27:39;101893.81;;;17.57;97.23
76022;BME280;64718;52.124;6.226;2023-06-22T01:30:09;101896.25;;;17.45;97.37
76022;BME280;64718;52.124;6.226;2023-06-22T01:32:38;101893.50;;;17.30;100.00
76022;BME280;64718;52.124;6.226;2023-06-22T01:35:08;101891.72;;;17.31;99.52
76022;BME280;64718;52.124;6.226;2023-06-22T01:37:36;101884.69;;;17.31;100.00
76022;BME280;64718;52.124;6.226;2023-06-22T01:40:05;101881.13;;;17.32;100.00
76022;BME280;64718;52.124;6.226;2023-06-22T01:42:32;101878.09;;;17.40;99.99
76022;BME280;64718;52.124;6.226;2023-06-22T01:44:59;101880.66;;;17.42;99.45
76022;BME280;64718;52.124;6.226;2023-06-22T01:47:27;101883.28;;;17.42;99.79
76022;BME280;64718;52.124;6.226;2023-06-22T01:49:55;101889.63;;;17.37;99.14
76022;BME280;64718;52.124;6.226;2023-06-22T01:52:22;101890.03;;;17.30;97.63
76022;BME280;64718;52.124;6.226;2023-06-22T01:54:48;101877.72;;;17.30;98.85
76022;BME280;64718;52.124;6.226;2023-06-22T01:57:15;101875.78;;;17.34;99.68
76022;BME280;64718;52.124;6.226;2023-06-22T01:59:48;101872.25;;;17.35;100.00
76022;BME280;64718;52.124;6.226;2023-06-22T02:02:20;101867.88;;;17.34;99.89
76022;BME280;64718;52.124;6.226;2023-06-22T02:04:57;101869.59;;;17.35;100.00
76022;BME280;64718;52.124;6.226;2023-06-22T02:07:29;101876.72;;;17.33;99.69
76022;BME280;64718;52.124;6.226;2023-06-22T02:09:59;101873.47;;;17.28;100.00
76022;BME280;64718;52.124;6.226;2023-06-22T02:12:28;101880.94;;;17.20;100.00
76022;BME280;64718;52.124;6.226;2023-06-22T02:14:56;101868.97;;;17.14;100.00
76022;BME280;64718;52.124;6.226;2023-06-22T02:17:24;101878.63;;;17.14;100.00
76022;BME280;64718;52.124;6.226;2023-06-22T02:19:53;101878.03;;;17.08;100.00
76022;BME280;64718;52.124;6.226;2023-06-22T02:22:19;101889.56;;;17.06;100.00
76022;BME280;64718;52.124;6.226;2023-06-22T02:24:46;101881.75;;;17.04;100.00
76022;BME280;64718;52.124;6.226;2023-06-22T02:27:12;101880.91;;;17.04;100.00
76022;BME280;64718;52.124;6.226;2023-06-22T02:29:39;101874.19;;;16.98;100.00
76022;BME280;64718;52.124;6.226;2023-06-22T02:32:06;101874.34;;;16.95;100.00
76022;BME280;64718;52.124;6.226;2023-06-22T02:34:33;101872.13;;;16.88;100.00
76022;BME280;64718;52.124;6.226;2023-06-22T02:37:01;101867.56;;;16.91;100.00
76022;BME280;64718;52.124;6.226;2023-06-22T02:39:28;101871.13;;;16.90;100.00
76022;BME280;64718;52.124;6.226;2023-06-22T02:41:55;101868.25;;;16.95;100.00
76022;BME280;64718;52.124;6.226;2023-06-22T02:44:21;101864.00;;;16.92;100.00
76022;BME280;64718;52.124;6.226;2023-06-22T02:46:48;101869.88;;;16.97;100.00
76022;BME280;64718;52.124;6.226;2023-06-22T02:49:15;101856.63;;;16.99;100.00
76022;BME280;64718;52.124;6.226;2023-06-22T02:51:44;101855.72;;;17.16;100.00
76022;BME280;64718;52.124;6.226;2023-06-22T02:54:12;101866.16;;;17.01;100.00
76022;BME280;64718;52.124;6.226;2023-06-22T02:56:39;101864.94;;;16.91;100.00
76022;BME280;64718;52.124;6.226;2023-06-22T02:59:09;101866.72;;;16.91;100.00
76022;BME280;64718;52.124;6.226;2023-06-22T03:01:36;101864.31;;;16.86;100.00
76022;BME280;64718;52.124;6.226;2023-06-22T03:04:05;101873.06;;;16.87;100.00
76022;BME280;64718;52.124;6.226;2023-06-22T03:06:32;101865.00;;;16.90;100.00
76022;BME280;64718;52.124;6.226;2023-06-22T03:09:00;101871.72;;;16.95;100.00
76022;BME280;64718;52.124;6.226;2023-06-22T03:11:28;101870.28;;;16.90;100.00
76022;BME280;64718;52.124;6.226;2023-06-22T03:13:54;101869.59;;;16.86;100.00
76022;BME280;64718;52.124;6.226;2023-06-22T03:16:21;101870.59;;;16.84;100.00
76022;BME280;64718;52.124;6.226;2023-06-22T03:18:48;101862.72;;;16.84;100.00
76022;BME280;64718;52.124;6.226;2023-06-22T03:21:14;101862.72;;;16.84;100.00
76022;BME280;64718;52.124;6.226;2023-06-22T03:23:42;101854.91;;;16.82;100.00
76022;BME280;64718;52.124;6.226;2023-06-22T03:26:09;101858.47;;;16.81;100.00
76022;BME280;64718;52.124;6.226;2023-06-22T03:28:37;101860.94;;;16.84;100.00
76022;BME280;64718;52.124;6.226;2023-06-22T03:31:04;101852.88;;;16.87;100.00
76022;BME280;64718;52.124;6.226;2023-06-22T03:33:31;101857.44;;;16.84;100.00
76022;BME280;64718;52.124;6.226;2023-06-22T03:35:58;101861.09;;;16.81;100.00
76022;BME280;64718;52.124;6.226;2023-06-22T03:38:25;101855.84;;;16.81;100.00
76022;BME280;64718;52.124;6.226;2023-06-22T03:40:51;101852.53;;;16.78;100.00
76022;BME280;64718;52.124;6.226;2023-06-22T03:43:18;101851.50;;;16.80;100.00
76022;BME280;64718;52.124;6.226;2023-06-22T03:45:46;101840.16;;;16.80;100.00
76022;BME280;64718;52.124;6.226;2023-06-22T03:48:12;101841.16;;;16.77;100.00
76022;BME280;64718;52.124;6.226;2023-06-22T03:50:39;101842.63;;;16.83;100.00
76022;BME280;64718;52.124;6.226;2023-06-22T03:53:05;101839.13;;;16.82;100.00
76022;BME280;64718;52.124;6.226;2023-06-22T03:55:34;101844.31;;;16.84;100.00
76022;BME280;64718;52.124;6.226;2023-06-22T03:58:00;101837.28;;;16.84;100.00
76022;BME280;64718;52.124;6.226;2023-06-22T04:00:31;101840.16;;;16.80;100.00
76022;BME280;64718;52.124;6.226;2023-06-22T04:02:58;101838.38;;;16.80;100.00
76022;BME280;64718;52.124;6.226;2023-06-22T04:05:25;101834.72;;;16.83;100.00
76022;BME280;64718;52.124;6.226;2023-06-22T04:07:52;101830.16;;;16.86;100.00
76022;BME280;64718;52.124;6.226;2023-06-22T04:10:18;101824.06;;;16.86;100.00
76022;BME280;64718;52.124;6.226;2023-06-22T04:12:45;101830.00;;;16.89;100.00
76022;BME280;64718;52.124;6.226;2023-06-22T04:15:11;101828.97;;;16.92;100.00
76022;BME280;64718;52.124;6.226;2023-06-22T04:17:38;101828.66;;;16.98;100.00
76022;BME280;64718;52.124;6.226;2023-06-22T04:20:07;101831.28;;;16.98;100.00
76022;BME280;64718;52.124;6.226;2023-06-22T04:22:34;101831.97;;;17.01;100.00
76022;BME280;64718;52.124;6.226;2023-06-22T04:25:01;101828.06;;;17.08;100.00
76022;BME280;64718;52.124;6.226;2023-06-22T04:27:27;101835.63;;;17.15;100.00
76022;BME280;64718;52.124;6.226;2023-06-22T04:29:54;101833.34;;;17.24;100.00
76022;BME280;64718;52.124;6.226;2023-06-22T04:32:20;101837.19;;;17.50;100.00
76022;BME280;64718;52.124;6.226;2023-06-22T04:34:47;101824.13;;;17.80;100.00
76022;BME280;64718;52.124;6.226;2023-06-22T04:37:15;101831.72;;;18.16;100.00
76022;BME280;64718;52.124;6.226;2023-06-22T04:39:42;101824.94;;;18.56;100.00
76022;BME280;64718;52.124;6.226;2023-06-22T04:42:08;101828.47;;;19.14;100.00
76022;BME280;64718;52.124;6.226;2023-06-22T04:44:35;101828.94;;;19.62;98.35
76022;BME280;64718;52.124;6.226;2023-06-22T04:47:02;101826.53;;;19.85;95.09
76022;BME280;64718;52.124;6.226;2023-06-22T04:49:32;101828.13;;;20.28;92.11
76022;BME280;64718;52.124;6.226;2023-06-22T04:52:00;101814.09;;;20.78;87.92
76022;BME280;64718;52.124;6.226;2023-06-22T04:54:28;101822.97;;;21.02;86.58
76022;BME280;64718;52.124;6.226;2023-06-22T04:56:54;101824.00;;;21.25;84.71
76022;BME280;64718;52.124;6.226;2023-06-22T04:59:22;101823.41;;;20.96;85.72
76022;BME280;64718;52.124;6.226;2023-06-22T05:01:53;101824.38;;;20.57;88.15
76022;BME280;64718;52.124;6.226;2023-06-22T05:04:20;101820.72;;;20.33;91.09
76022;BME280;64718;52.124;6.226;2023-06-22T05:06:47;101819.25;;;20.29;89.24
76022;BME280;64718;52.124;6.226;2023-06-22T05:09:14;101814.69;;;20.31;90.91
76022;BME280;64718;52.124;6.226;2023-06-22T05:11:42;101818.88;;;20.60;88.78
76022;BME280;64718;52.124;6.226;2023-06-22T05:14:08;101811.97;;;20.96;86.33
76022;BME280;64718;52.124;6.226;2023-06-22T05:16:36;101813.41;;;21.25;86.14
76022;BME280;64718;52.124;6.226;2023-06-22T05:19:02;101815.88;;;21.76;83.79
76022;BME280;64718;52.124;6.226;2023-06-22T05:21:30;101819.38;;;22.00;81.78
76022;BME280;64718;52.124;6.226;2023-06-22T05:23:57;101818.63;;;22.22;79.18
76022;BME280;64718;52.124;6.226;2023-06-22T05:26:26;101813.13;;;22.01;80.51
76022;BME280;64718;52.124;6.226;2023-06-22T05:28:54;101819.59;;;21.97;82.03
76022;BME280;64718;52.124;6.226;2023-06-22T05:31:21;101811.59;;;22.10;78.80
76022;BME280;64718;52.124;6.226;2023-06-22T05:33:50;101819.56;;;22.10;80.27
76022;BME280;64718;52.124;6.226;2023-06-22T05:36:17;101816.50;;;21.79;79.74
76022;BME280;64718;52.124;6.226;2023-06-22T05:38:45;101822.19;;;21.26;82.45
76022;BME280;64718;52.124;6.226;2023-06-22T05:41:12;101819.34;;;21.16;84.04
76022;BME280;64718;52.124;6.226;2023-06-22T05:43:39;101819.50;;;21.38;82.92
76022;BME280;64718;52.124;6.226;2023-06-22T05:46:07;101825.19;;;21.58;83.67
76022;BME280;64718;52.124;6.226;2023-06-22T05:48:33;101827.06;;;21.19;83.48
76022;BME280;64718;52.124;6.226;2023-06-22T05:51:00;101827.97;;;20.94;85.49
76022;BME280;64718;52.124;6.226;2023-06-22T05:53:27;101836.53;;;20.98;85.71
76022;BME280;64718;52.124;6.226;2023-06-22T05:55:53;101837.06;;;20.90;85.45
76022;BME280;64718;52.124;6.226;2023-06-22T05:58:20;101835.94;;;21.18;86.08
76022;BME280;64718;52.124;6.226;2023-06-22T06:00:46;101829.50;;;21.09;84.96
76022;BME280;64718;52.124;6.226;2023-06-22T06:03:14;101835.81;;;20.83;87.42
76022;BME280;64718;52.124;6.226;2023-06-22T06:05:42;101836.66;;;20.83;86.91
76022;BME280;64718;52.124;6.226;2023-06-22T06:08:10;101835.06;;;20.81;86.97
76022;BME280;64718;52.124;6.226;2023-06-22T06:10:37;101833.13;;;20.96;86.79
76022;BME280;64718;52.124;6.226;2023-06-22T06:13:04;101829.81;;;21.43;84.94
76022;BME280;64718;52.124;6.226;2023-06-22T06:15:31;101820.06;;;22.15;79.72
76022;BME280;64718;52.124;6.226;2023-06-22T06:17:58;101822.28;;;22.44;78.05
76022;BME280;64718;52.124;6.226;2023-06-22T06:20:26;101831.28;;;22.19;79.77
76022;BME280;64718;52.124;6.226;2023-06-22T06:22:54;101826.84;;;22.41;78.64
76022;BME280;64718;52.124;6.226;2023-06-22T06:25:20;101828.59;;;22.65;76.58
76022;BME280;64718;52.124;6.226;2023-06-22T06:27:49;101830.22;;;22.90;75.64
76022;BME280;64718;52.124;6.226;2023-06-22T06:30:17;101830.72;;;22.49;76.22
76022;BME280;64718;52.124;6.226;2023-06-22T06:32:44;101827.34;;;22.35;77.72
76022;BME280;64718;52.124;6.226;2023-06-22T06:35:12;101822.53;;;22.52;76.68
76022;BME280;64718;52.124;6.226;2023-06-22T06:37:42;101824.22;;;22.41;77.79
76022;BME280;64718;52.124;6.226;2023-06-22T06:40:10;101833.13;;;22.40;77.55
76022;BME280;64718;52.124;6.226;2023-06-22T06:42:37;101831.91;;;22.33;77.49
76022;BME280;64718;52.124;6.226;2023-06-22T06:45:06;101821.63;;;22.75;76.10
76022;BME280;64718;52.124;6.226;2023-06-22T06:47:33;101818.63;;;23.24;73.83
76022;BME280;64718;52.124;6.226;2023-06-22T06:50:00;101819.28;;;23.49;72.62
76022;BME280;64718;52.124;6.226;2023-06-22T06:52:26;101820.31;;;23.14;73.42
76022;BME280;64718;52.124;6.226;2023-06-22T06:54:54;101812.50;;;23.67;71.62
76022;BME280;64718;52.124;6.226;2023-06-22T06:57:21;101819.00;;;24.27;67.96
76022;BME280;64718;52.124;6.226;2023-06-22T06:59:48;101815.34;;;24.70;66.50
76022;BME280;64718;52.124;6.226;2023-06-22T07:02:14;101804.59;;;25.02;65.42
76022;BME280;64718;52.124;6.226;2023-06-22T07:04:41;101798.41;;;25.51;62.98
76022;BME280;64718;52.124;6.226;2023-06-22T07:07:08;101793.88;;;25.32;62.87
76022;BME280;64718;52.124;6.226;2023-06-22T07:09:34;101796.59;;;26.00;60.88
76022;BME280;64718;52.124;6.226;2023-06-22T07:12:03;101788.13;;;26.43;59.04
76022;BME280;64718;52.124;6.226;2023-06-22T07:14:29;101795.66;;;26.94;57.76
76022;BME280;64718;52.124;6.226;2023-06-22T07:16:56;101783.44;;;27.01;56.92
76022;BME280;64718;52.124;6.226;2023-06-22T07:19:26;101781.91;;;26.99;56.61
76022;BME280;64718;52.124;6.226;2023-06-22T07:21:53;101776.28;;;27.65;54.64
76022;BME280;64718;52.124;6.226;2023-06-22T07:24:20;101781.28;;;27.50;55.59
76022;BME280;64718;52.124;6.226;2023-06-22T07:26:47;101774.94;;;27.33;55.27
76022;BME280;64718;52.124;6.226;2023-06-22T07:29:16;101781.03;;;26.71;56.82
76022;BME280;64718;52.124;6.226;2023-06-22T07:31:44;101777.06;;;26.28;57.97
76022;BME280;64718;52.124;6.226;2023-06-22T07:34:11;101777.94;;;25.61;60.42
76022;BME280;64718;52.124;6.226;2023-06-22T07:36:38;101775.13;;;25.92;60.58
76022;BME280;64718;52.124;6.226;2023-06-22T07:39:05;101778.03;;;25.31;61.89
76022;BME280;64718;52.124;6.226;2023-06-22T07:41:32;101775.63;;;25.08;62.64
76022;BME280;64718;52.124;6.226;2023-06-22T07:43:58;101772.94;;;24.99;63.23
76022;BME280;64718;52.124;6.226;2023-06-22T07:46:26;101763.97;;;24.79;64.06
76022;BME280;64718;52.124;6.226;2023-06-22T07:48:55;101767.72;;;24.67;65.45
76022;BME280;64718;52.124;6.226;2023-06-22T07:51:22;101764.56;;;24.82;63.84
76022;BME280;64718;52.124;6.226;2023-06-22T07:53:48;101769.81;;;25.63;61.83
76022;BME280;64718;52.124;6.226;2023-06-22T07:56:15;101763.19;;;26.15;60.24
76022;BME280;64718;52.124;6.226;2023-06-22T07:58:44;101760.72;;;27.15;57.05
76022;BME280;64718;52.124;6.226;2023-06-22T08:01:11;101760.63;;;27.07;55.63
76022;BME280;64718;52.124;6.226;2023-06-22T08:03:39;101756.91;;;28.07;54.22
76022;BME280;64718;52.124;6.226;2023-06-22T08:06:05;101756.34;;;27.77;55.62
76022;BME280;64718;52.124;6.226;2023-06-22T08:08:34;101762.13;;;27.55;54.68
76022;BME280;64718;52.124;6.226;2023-06-22T08:11:01;101756.00;;;27.45;54.57
76022;BME280;64718;52.124;6.226;2023-06-22T08:13:27;101740.84;;;27.81;54.37
76022;BME280;64718;52.124;6.226;2023-06-22T08:15:54;101751.97;;;27.58;54.31
76022;BME280;64718;52.124;6.226;2023-06-22T08:18:20;101751.13;;;27.22;55.39
76022;BME280;64718;52.124;6.226;2023-06-22T08:20:48;101748.75;;;26.64;56.56
76022;BME280;64718;52.124;6.226;2023-06-22T08:23:15;101743.66;;;26.34;57.89
76022;BME280;64718;52.124;6.226;2023-06-22T08:25:42;101742.94;;;26.32;58.96
76022;BME280;64718;52.124;6.226;2023-06-22T08:28:08;101732.75;;;26.08;59.61
76022;BME280;64718;52.124;6.226;2023-06-22T08:30:35;101735.16;;;26.01;58.82
76022;BME280;64718;52.124;6.226;2023-06-22T08:33:01;101716.34;;;26.03;58.58
76022;BME280;64718;52.124;6.226;2023-06-22T08:35:28;101714.13;;;26.45;57.96
76022;BME280;64718;52.124;6.226;2023-06-22T08:37:56;101711.28;;;26.09;59.14
76022;BME280;64718;52.124;6.226;2023-06-22T08:40:24;101704.47;;;26.34;58.88
76022;BME280;64718;52.124;6.226;2023-06-22T08:42:51;101703.38;;;26.17;59.60
76022;BME280;64718;52.124;6.226;2023-06-22T08:45:17;101696.50;;;26.62;58.06
76022;BME280;64718;52.124;6.226;2023-06-22T08:47:44;101697.03;;;26.65;57.69
76022;BME280;64718;52.124;6.226;2023-06-22T08:50:11;101698.22;;;27.26;56.52
76022;BME280;64718;52.124;6.226;2023-06-22T08:52:39;101686.13;;;27.75;54.32
76022;BME280;64718;52.124;6.226;2023-06-22T08:55:09;101696.84;;;27.75;54.04
76022;BME280;64718;52.124;6.226;2023-06-22T08:57:36;101690.44;;;27.32;54.40
76022;BME280;64718;52.124;6.226;2023-06-22T09:00:05;101699.72;;;27.10;55.41
76022;BME280;64718;52.124;6.226;2023-06-22T09:02:40;101700.03;;;27.07;55.93
76022;BME280;64718;52.124;6.226;2023-06-22T09:05:07;101702.38;;;26.65;56.82
76022;BME280;64718;52.124;6.226;2023-06-22T09:07:33;101694.00;;;26.78;57.71
76022;BME280;64718;52.124;6.226;2023-06-22T09:10:00;101685.75;;;27.17;56.90
76022;BME280;64718;52.124;6.226;2023-06-22T09:12:31;101686.81;;;28.71;52.23
76022;BME280;64718;52.124;6.226;2023-06-22T09:14:58;101694.56;;;29.57;49.71
76022;BME280;64718;52.124;6.226;2023-06-22T09:17:25;101689.81;;;30.08;47.21
76022;BME280;64718;52.124;6.226;2023-06-22T09:19:52;101689.13;;;29.89;48.07
76022;BME280;64718;52.124;6.226;2023-06-22T09:22:19;101682.31;;;29.71;47.27
76022;BME280;64718;52.124;6.226;2023-06-22T09:24:45;101676.19;;;28.87;48.43
76022;BME280;64718;52.124;6.226;2023-06-22T09:27:12;101677.63;;;28.06;50.69
76022;BME280;64718;52.124;6.226;2023-06-22T09:29:40;101680.09;;;27.73;52.51
76022;BME280;64718;52.124;6.226;2023-06-22T09:32:07;101668.63;;;27.81;51.73
76022;BME280;64718;52.124;6.226;2023-06-22T09:34:33;101681.84;;;27.64;52.62
76022;BME280;64718;52.124;6.226;2023-06-22T09:37:00;101683.00;;;27.62;52.87
76022;BME280;64718;52.124;6.226;2023-06-22T09:39:27;101678.00;;;27.23;53.77
76022;BME280;64718;52.124;6.226;2023-06-22T09:41:53;101674.00;;;27.45;53.95
76022;BME280;64718;52.124;6.226;2023-06-22T09:44:20;101674.09;;;27.18;53.71
76022;BME280;64718;52.124;6.226;2023-06-22T09:46:48;101667.66;;;27.10;53.42
76022;BME280;64718;52.124;6.226;2023-06-22T09:49:14;101657.66;;;27.13;53.63
76022;BME280;64718;52.124;6.226;2023-06-22T09:51:41;101656.25;;;27.18;54.01
76022;BME280;64718;52.124;6.226;2023-06-22T09:54:07;101663.69;;;27.15;54.53
76022;BME280;64718;52.124;6.226;2023-06-22T09:56:34;101667.84;;;27.27;54.17
76022;BME280;64718;52.124;6.226;2023-06-22T09:59:02;101673.16;;;27.45;53.55
76022;BME280;64718;52.124;6.226;2023-06-22T10:01:29;101669.38;;;27.29;53.55
76022;BME280;64718;52.124;6.226;2023-06-22T10:03:57;101671.19;;;27.11;53.33
76022;BME280;64718;52.124;6.226;2023-06-22T10:06:24;101668.88;;;26.98;53.69
76022;BME280;64718;52.124;6.226;2023-06-22T10:08:51;101665.00;;;27.10;54.65
76022;BME280;64718;52.124;6.226;2023-06-22T10:11:17;101666.34;;;26.97;55.14
76022;BME280;64718;52.124;6.226;2023-06-22T10:13:44;101667.16;;;26.97;55.68
76022;BME280;64718;52.124;6.226;2023-06-22T10:16:11;101673.72;;;26.67;54.51
76022;BME280;64718;52.124;6.226;2023-06-22T10:18:37;101671.13;;;26.48;53.94
76022;BME280;64718;52.124;6.226;2023-06-22T10:21:05;101670.63;;;26.35;54.63
76022;BME280;64718;52.124;6.226;2023-06-22T10:23:32;101667.75;;;25.99;55.19
76022;BME280;64718;52.124;6.226;2023-06-22T10:25:58;101666.31;;;25.68;56.13
76022;BME280;64718;52.124;6.226;2023-06-22T10:28:25;101665.03;;;25.62;57.52
76022;BME280;64718;52.124;6.226;2023-06-22T10:30:51;101674.69;;;25.63;56.95
76022;BME280;64718;52.124;6.226;2023-06-22T10:33:18;101673.03;;;25.62;56.41
76022;BME280;64718;52.124;6.226;2023-06-22T10:35:45;101671.34;;;25.61;56.91
76022;BME280;64718;52.124;6.226;2023-06-22T10:38:13;101670.22;;;25.73;56.63
76022;BME280;64718;52.124;6.226;2023-06-22T10:40:40;101657.81;;;25.92;56.91
76022;BME280;64718;52.124;6.226;2023-06-22T10:43:06;101654.72;;;26.06;56.73
76022;BME280;64718;52.124;6.226;2023-06-22T10:45:33;101652.75;;;26.08;55.85
76022;BME280;64718;52.124;6.226;2023-06-22T10:47:59;101646.88;;;25.95;55.83
76022;BME280;64718;52.124;6.226;2023-06-22T10:50:26;101650.22;;;25.97;56.98
76022;BME280;64718;52.124;6.226;2023-06-22T10:52:53;101658.22;;;25.97;56.04
76022;BME280;64718;52.124;6.226;2023-06-22T10:55:21;101653.44;;;26.00;55.91
76022;BME280;64718;52.124;6.226;2023-06-22T10:57:48;101654.13;;;26.12;55.75
76022;BME280;64718;52.124;6.226;2023-06-22T11:00:15;101649.44;;;26.24;56.18
76022;BME280;64718;52.124;6.226;2023-06-22T11:02:42;101644.94;;;26.24;54.92
76022;BME280;64718;52.124;6.226;2023-06-22T11:05:09;101648.16;;;26.37;55.46
76022;BME280;64718;52.124;6.226;2023-06-22T11:07:37;101641.47;;;26.51;54.89
76022;BME280;64718;52.124;6.226;2023-06-22T11:10:05;101642.31;;;26.52;55.17
76022;BME280;64718;52.124;6.226;2023-06-22T11:12:33;101640.53;;;26.70;55.38
76022;BME280;64718;52.124;6.226;2023-06-22T11:14:59;101634.44;;;26.50;55.32
76022;BME280;64718;52.124;6.226;2023-06-22T11:17:26;101632.81;;;26.39;56.47
76022;BME280;64718;52.124;6.226;2023-06-22T11:19:52;101627.63;;;26.38;56.33
76022;BME280;64718;52.124;6.226;2023-06-22T11:22:19;101626.09;;;26.35;56.16
76022;BME280;64718;52.124;6.226;2023-06-22T11:24:45;101625.59;;;26.22;57.37
76022;BME280;64718;52.124;6.226;2023-06-22T11:27:12;101627.16;;;26.15;58.57
76022;BME280;64718;52.124;6.226;2023-06-22T11:29:40;101624.00;;;26.02;59.36
76022;BME280;64718;52.124;6.226;2023-06-22T11:32:07;101626.28;;;25.87;58.88
76022;BME280;64718;52.124;6.226;2023-06-22T11:34:33;101621.25;;;25.65;60.24
76022;BME280;64718;52.124;6.226;2023-06-22T11:37:00;101613.81;;;25.78;59.19
76022;BME280;64718;52.124;6.226;2023-06-22T11:39:27;101608.22;;;25.71;57.82
76022;BME280;64718;52.124;6.226;2023-06-22T11:41:53;101606.94;;;25.75;57.19
76022;BME280;64718;52.124;6.226;2023-06-22T11:44:20;101597.97;;;25.76;56.79
76022;BME280;64718;52.124;6.226;2023-06-22T11:46:48;101603.31;;;25.67;56.47
76022;BME280;64718;52.124;6.226;2023-06-22T11:49:15;101600.91;;;25.73;57.22
76022;BME280;64718;52.124;6.226;2023-06-22T11:51:41;101598.81;;;25.77;56.30
76022;BME280;64718;52.124;6.226;2023-06-22T11:54:08;101602.31;;;25.77;57.30
76022;BME280;64718;52.124;6.226;2023-06-22T11:56:34;101601.34;;;25.69;57.28
76022;BME280;64718;52.124;6.226;2023-06-22T11:59:01;101595.63;;;25.54;57.68
76022;BME280;64718;52.124;6.226;2023-06-22T12:01:27;101593.38;;;25.40;58.75
76022;BME280;64718;52.124;6.226;2023-06-22T12:03:56;101598.31;;;25.25;59.25
76022;BME280;64718;52.124;6.226;2023-06-22T12:06:23;101598.47;;;25.14;60.36
76022;BME280;64718;52.124;6.226;2023-06-22T12:08:50;101601.84;;;25.06;62.07
76022;BME280;64718;52.124;6.226;2023-06-22T12:11:16;101605.91;;;25.01;60.89
76022;BME280;64718;52.124;6.226;2023-06-22T12:13:43;101604.59;;;24.95;61.53
76022;BME280;64718;52.124;6.226;2023-06-22T12:16:09;101609.78;;;24.97;61.51
76022;BME280;64718;52.124;6.226;2023-06-22T12:18:37;101601.69;;;24.98;61.78
76022;BME280;64718;52.124;6.226;2023-06-22T12:21:05;101616.84;;;24.98;62.54
76022;BME280;64718;52.124;6.226;2023-06-22T12:23:32;101608.22;;;24.75;64.57
76022;BME280;64718;52.124;6.226;2023-06-22T12:25:58;101614.34;;;24.25;67.54
76022;BME280;64718;52.124;6.226;2023-06-22T12:28:26;101607.34;;;23.84;72.35
76022;BME280;64718;52.124;6.226;2023-06-22T12:30:53;101613.41;;;23.33;77.26
76022;BME280;64718;52.124;6.226;2023-06-22T12:33:20;101614.19;;;22.92;81.36
76022;BME280;64718;52.124;6.226;2023-06-22T12:35:46;101614.47;;;22.67;84.93
76022;BME280;64718;52.124;6.226;2023-06-22T12:38:16;101622.31;;;22.68;87.99
76022;BME280;64718;52.124;6.226;2023-06-22T12:40:43;101619.06;;;22.54;85.86
76022;BME280;64718;52.124;6.226;2023-06-22T12:43:09;101624.38;;;22.54;89.65
76022;BME280;64718;52.124;6.226;2023-06-22T12:45:36;101624.38;;;22.54;91.06
76022;BME280;64718;52.124;6.226;2023-06-22T12:48:03;101637.03;;;22.39;89.59
76022;BME280;64718;52.124;6.226;2023-06-22T12:50:30;101649.47;;;22.27;96.52